Molokai, Hawaii
Current Conditions -  °F | °C
As of 7:54 PM on Thursday 27 Nov 2014 (Local Time) from PHMK Reporting Station
Broken Clouds Broken Clouds  
Wind Chill: 73°   Ceiling: 4000
Heat Index: 73°   Visibility: 10mi
Dew Point: 60°   Wind: 13mph
Humidity: 64%   Direction: 50°NE
Pressure: 30.08"   Gusts: 24mph
Location:  21.13°N, 157.18°W
Report Text: PHMK 280554Z AUTO 05011G21KT 10SM BKN040 23/16 A3008 RMK AO2 PK WND 05026/0523 SLP189 60001 T02280156 10261 20217 51016 TSNO
Loading
Personal Weather Stations






























Interactive Weather Map New forecast layout! Learn more

10-Day Weather Forecast

Advertisements
Track Severe Weather on mobile